sensor_id;sensor_type;location;lat;lon;timestamp;temperature;humidity
3794;DHT22;1912;51.358;12.282;2022-07-29T00:00:09;18.50;1.00
3794;DHT22;1912;51.358;12.282;2022-07-29T00:02:36;18.50;1.00
3794;DHT22;1912;51.358;12.282;2022-07-29T00:05:02;18.40;1.00
3794;DHT22;1912;51.358;12.282;2022-07-29T00:07:29;18.50;1.00
3794;DHT22;1912;51.358;12.282;2022-07-29T00:09:54;18.40;1.00
3794;DHT22;1912;51.358;12.282;2022-07-29T00:12:22;18.40;1.00
3794;DHT22;1912;51.358;12.282;2022-07-29T00:14:48;18.40;1.00
3794;DHT22;1912;51.358;12.282;2022-07-29T00:17:14;18.30;1.00
3794;DHT22;1912;51.358;12.282;2022-07-29T00:19:40;18.30;1.00
3794;DHT22;1912;51.358;12.282;2022-07-29T00:22:05;18.30;1.00
3794;DHT22;1912;51.358;12.282;2022-07-29T00:24:31;18.20;1.00
3794;DHT22;1912;51.358;12.282;2022-07-29T00:26:57;18.20;1.00
3794;DHT22;1912;51.358;12.282;2022-07-29T00:29:22;18.20;1.00
3794;DHT22;1912;51.358;12.282;2022-07-29T00:31:48;18.20;1.00
3794;DHT22;1912;51.358;12.282;2022-07-29T00:34:14;18.20;1.00
3794;DHT22;1912;51.358;12.282;2022-07-29T00:36:58;18.20;1.00
3794;DHT22;1912;51.358;12.282;2022-07-29T00:39:24;18.20;1.00
3794;DHT22;1912;51.358;12.282;2022-07-29T00:41:50;18.10;1.00
3794;DHT22;1912;51.358;12.282;2022-07-29T00:44:16;18.10;1.00
3794;DHT22;1912;51.358;12.282;2022-07-29T00:46:41;18.10;1.00
3794;DHT22;1912;51.358;12.282;2022-07-29T00:49:07;18.10;1.00
3794;DHT22;1912;51.358;12.282;2022-07-29T00:51:37;18.00;1.00
3794;DHT22;1912;51.358;12.282;2022-07-29T00:54:04;18.10;1.00
3794;DHT22;1912;51.358;12.282;2022-07-29T00:56:31;18.10;1.00
3794;DHT22;1912;51.358;12.282;2022-07-29T00:58:58;18.00;1.00
3794;DHT22;1912;51.358;12.282;2022-07-29T01:01:25;18.10;1.00
3794;DHT22;1912;51.358;12.282;2022-07-29T01:03:51;18.10;1.00
3794;DHT22;1912;51.358;12.282;2022-07-29T01:06:18;18.10;1.00
3794;DHT22;1912;51.358;12.282;2022-07-29T01:08:45;18.00;1.00
3794;DHT22;1912;51.358;12.282;2022-07-29T01:11:13;18.00;1.00
3794;DHT22;1912;51.358;12.282;2022-07-29T01:13:40;18.00;1.00
3794;DHT22;1912;51.358;12.282;2022-07-29T01:16:25;17.90;1.00
3794;DHT22;1912;51.358;12.282;2022-07-29T01:19:02;18.00;1.00
3794;DHT22;1912;51.358;12.282;2022-07-29T01:21:54;18.00;1.00
3794;DHT22;1912;51.358;12.282;2022-07-29T01:24:36;17.90;1.00
3794;DHT22;1912;51.358;12.282;2022-07-29T01:27:31;18.00;1.00
3794;DHT22;1912;51.358;12.282;2022-07-29T01:29:59;17.90;1.00
3794;DHT22;1912;51.358;12.282;2022-07-29T01:32:29;17.90;1.00
3794;DHT22;1912;51.358;12.282;2022-07-29T01:35:18;17.90;1.00
3794;DHT22;1912;51.358;12.282;2022-07-29T01:38:00;17.90;1.00
3794;DHT22;1912;51.358;12.282;2022-07-29T01:40:51;17.90;1.00
3794;DHT22;1912;51.358;12.282;2022-07-29T01:43:21;17.80;1.00
3794;DHT22;1912;51.358;12.282;2022-07-29T01:45:58;17.80;1.00
3794;DHT22;1912;51.358;12.282;2022-07-29T01:48:42;17.90;1.00
3794;DHT22;1912;51.358;12.282;2022-07-29T01:51:17;17.80;1.00
3794;DHT22;1912;51.358;12.282;2022-07-29T01:54:01;17.70;1.00
3794;DHT22;1912;51.358;12.282;2022-07-29T01:56:32;17.80;1.00
3794;DHT22;1912;51.358;12.282;2022-07-29T01:58:59;17.80;1.00
3794;DHT22;1912;51.358;12.282;2022-07-29T02:01:27;17.70;1.00
3794;DHT22;1912;51.358;12.282;2022-07-29T02:03:56;17.70;1.00
3794;DHT22;1912;51.358;12.282;2022-07-29T02:06:24;17.70;1.00
3794;DHT22;1912;51.358;12.282;2022-07-29T02:08:51;17.70;1.00
3794;DHT22;1912;51.358;12.282;2022-07-29T02:11:18;17.80;1.00
3794;DHT22;1912;51.358;12.282;2022-07-29T02:13:44;17.80;1.00
3794;DHT22;1912;51.358;12.282;2022-07-29T02:16:11;17.80;1.00
3794;DHT22;1912;51.358;12.282;2022-07-29T02:18:40;17.70;1.00
3794;DHT22;1912;51.358;12.282;2022-07-29T02:21:07;17.70;1.00
3794;DHT22;1912;51.358;12.282;2022-07-29T02:23:35;17.70;1.00
3794;DHT22;1912;51.358;12.282;2022-07-29T02:26:03;17.70;1.00
3794;DHT22;1912;51.358;12.282;2022-07-29T02:28:30;17.70;1.00
3794;DHT22;1912;51.358;12.282;2022-07-29T02:30:59;17.70;1.00
3794;DHT22;1912;51.358;12.282;2022-07-29T02:33:27;17.70;1.00
3794;DHT22;1912;51.358;12.282;2022-07-29T02:35:55;17.70;1.00
3794;DHT22;1912;51.358;12.282;2022-07-29T02:38:22;17.70;1.00
3794;DHT22;1912;51.358;12.282;2022-07-29T02:41:13;17.80;1.00
3794;DHT22;1912;51.358;12.282;2022-07-29T02:43:43;17.80;1.00
3794;DHT22;1912;51.358;12.282;2022-07-29T02:46:14;17.80;1.00
3794;DHT22;1912;51.358;12.282;2022-07-29T02:48:48;17.90;1.00
3794;DHT22;1912;51.358;12.282;2022-07-29T02:51:23;17.90;1.00
3794;DHT22;1912;51.358;12.282;2022-07-29T02:53:53;17.90;1.00
3794;DHT22;1912;51.358;12.282;2022-07-29T02:56:24;17.80;1.00
3794;DHT22;1912;51.358;12.282;2022-07-29T02:59:02;17.70;1.00
3794;DHT22;1912;51.358;12.282;2022-07-29T03:01:31;17.60;1.00
3794;DHT22;1912;51.358;12.282;2022-07-29T03:04:01;17.70;1.00
3794;DHT22;1912;51.358;12.282;2022-07-29T03:06:29;17.70;1.00
3794;DHT22;1912;51.358;12.282;2022-07-29T03:08:57;17.70;1.00
3794;DHT22;1912;51.358;12.282;2022-07-29T03:11:24;17.70;1.00
3794;DHT22;1912;51.358;12.282;2022-07-29T03:13:50;17.70;1.00
3794;DHT22;1912;51.358;12.282;2022-07-29T03:16:18;17.60;1.00
3794;DHT22;1912;51.358;12.282;2022-07-29T03:18:44;17.60;1.00
3794;DHT22;1912;51.358;12.282;2022-07-29T03:21:10;17.70;1.00
3794;DHT22;1912;51.358;12.282;2022-07-29T03:23:36;17.70;1.00
3794;DHT22;1912;51.358;12.282;2022-07-29T03:26:02;17.50;1.00
3794;DHT22;1912;51.358;12.282;2022-07-29T03:28:27;17.40;1.00
3794;DHT22;1912;51.358;12.282;2022-07-29T03:30:53;17.40;1.00
3794;DHT22;1912;51.358;12.282;2022-07-29T03:33:19;17.40;1.00
3794;DHT22;1912;51.358;12.282;2022-07-29T03:35:45;17.50;1.00
3794;DHT22;1912;51.358;12.282;2022-07-29T03:38:10;17.40;1.00
3794;DHT22;1912;51.358;12.282;2022-07-29T03:40:49;17.40;1.00
3794;DHT22;1912;51.358;12.282;2022-07-29T03:43:18;17.50;1.00
3794;DHT22;1912;51.358;12.282;2022-07-29T03:45:47;17.50;1.00
3794;DHT22;1912;51.358;12.282;2022-07-29T03:48:19;17.50;1.00
3794;DHT22;1912;51.358;12.282;2022-07-29T03:50:46;17.50;1.00
3794;DHT22;1912;51.358;12.282;2022-07-29T03:53:12;17.50;1.00
3794;DHT22;1912;51.358;12.282;2022-07-29T03:55:44;17.40;1.00
3794;DHT22;1912;51.358;12.282;2022-07-29T03:58:12;17.40;1.00
3794;DHT22;1912;51.358;12.282;2022-07-29T04:00:41;17.50;1.00
3794;DHT22;1912;51.358;12.282;2022-07-29T04:03:07;17.50;1.00
3794;DHT22;1912;51.358;12.282;2022-07-29T04:05:33;17.50;1.00
3794;DHT22;1912;51.358;12.282;2022-07-29T04:07:59;17.40;1.00
3794;DHT22;1912;51.358;12.282;2022-07-29T04:10:25;17.30;1.00
3794;DHT22;1912;51.358;12.282;2022-07-29T04:12:51;17.20;1.00
3794;DHT22;1912;51.358;12.282;2022-07-29T04:15:18;17.10;1.00
3794;DHT22;1912;51.358;12.282;2022-07-29T04:17:43;17.00;1.00
3794;DHT22;1912;51.358;12.282;2022-07-29T04:20:10;17.00;1.00
3794;DHT22;1912;51.358;12.282;2022-07-29T04:22:39;16.90;1.00
3794;DHT22;1912;51.358;12.282;2022-07-29T04:25:08;16.90;1.00
3794;DHT22;1912;51.358;12.282;2022-07-29T04:27:33;16.90;1.00
3794;DHT22;1912;51.358;12.282;2022-07-29T04:29:59;16.90;1.00
3794;DHT22;1912;51.358;12.282;2022-07-29T04:32:25;17.00;1.00
3794;DHT22;1912;51.358;12.282;2022-07-29T04:34:51;16.90;1.00
3794;DHT22;1912;51.358;12.282;2022-07-29T04:37:18;16.90;1.00
3794;DHT22;1912;51.358;12.282;2022-07-29T04:39:43;16.90;1.00
3794;DHT22;1912;51.358;12.282;2022-07-29T04:42:09;17.00;1.00
3794;DHT22;1912;51.358;12.282;2022-07-29T04:44:35;17.00;1.00
3794;DHT22;1912;51.358;12.282;2022-07-29T04:47:00;17.00;1.00
3794;DHT22;1912;51.358;12.282;2022-07-29T04:49:26;17.10;1.00
3794;DHT22;1912;51.358;12.282;2022-07-29T04:51:51;17.20;1.00
3794;DHT22;1912;51.358;12.282;2022-07-29T04:54:17;17.20;1.00
3794;DHT22;1912;51.358;12.282;2022-07-29T04:56:43;17.30;1.00
3794;DHT22;1912;51.358;12.282;2022-07-29T04:59:09;17.30;1.00
3794;DHT22;1912;51.358;12.282;2022-07-29T05:01:34;17.40;1.00
3794;DHT22;1912;51.358;12.282;2022-07-29T05:04:00;17.40;1.00
3794;DHT22;1912;51.358;12.282;2022-07-29T05:06:25;17.50;1.00
3794;DHT22;1912;51.358;12.282;2022-07-29T05:08:51;17.60;1.00
3794;DHT22;1912;51.358;12.282;2022-07-29T05:11:17;17.70;1.00
3794;DHT22;1912;51.358;12.282;2022-07-29T05:13:42;17.80;1.00
3794;DHT22;1912;51.358;12.282;2022-07-29T05:16:08;17.90;1.00
3794;DHT22;1912;51.358;12.282;2022-07-29T05:18:34;17.90;1.00
3794;DHT22;1912;51.358;12.282;2022-07-29T05:21:00;17.90;1.00
3794;DHT22;1912;51.358;12.282;2022-07-29T05:23:25;18.00;1.00
3794;DHT22;1912;51.358;12.282;2022-07-29T05:25:51;18.10;1.00
3794;DHT22;1912;51.358;12.282;2022-07-29T05:28:17;18.10;1.00
3794;DHT22;1912;51.358;12.282;2022-07-29T05:30:42;18.20;1.00
3794;DHT22;1912;51.358;12.282;2022-07-29T05:33:10;18.20;1.00
3794;DHT22;1912;51.358;12.282;2022-07-29T05:35:36;18.20;1.00
3794;DHT22;1912;51.358;12.282;2022-07-29T05:38:03;18.20;1.00
3794;DHT22;1912;51.358;12.282;2022-07-29T05:40:29;18.30;1.00
3794;DHT22;1912;51.358;12.282;2022-07-29T05:42:55;18.30;1.00
3794;DHT22;1912;51.358;12.282;2022-07-29T05:45:21;18.30;1.00
3794;DHT22;1912;51.358;12.282;2022-07-29T05:47:46;18.50;1.00
3794;DHT22;1912;51.358;12.282;2022-07-29T05:50:12;18.40;1.00
3794;DHT22;1912;51.358;12.282;2022-07-29T05:52:38;18.40;1.00
3794;DHT22;1912;51.358;12.282;2022-07-29T05:55:04;18.30;1.00
3794;DHT22;1912;51.358;12.282;2022-07-29T05:57:31;18.40;1.00
3794;DHT22;1912;51.358;12.282;2022-07-29T05:59:57;18.30;1.00
3794;DHT22;1912;51.358;12.282;2022-07-29T06:02:22;18.40;1.00
3794;DHT22;1912;51.358;12.282;2022-07-29T06:04:48;18.40;1.00
3794;DHT22;1912;51.358;12.282;2022-07-29T06:07:14;18.50;1.00
3794;DHT22;1912;51.358;12.282;2022-07-29T06:09:41;18.60;1.00
3794;DHT22;1912;51.358;12.282;2022-07-29T06:12:07;18.60;1.00
3794;DHT22;1912;51.358;12.282;2022-07-29T06:14:32;18.70;1.00
3794;DHT22;1912;51.358;12.282;2022-07-29T06:16:58;18.70;1.00
3794;DHT22;1912;51.358;12.282;2022-07-29T06:19:24;18.80;1.00
3794;DHT22;1912;51.358;12.282;2022-07-29T06:21:49;18.80;1.00
3794;DHT22;1912;51.358;12.282;2022-07-29T06:24:15;18.90;1.00
3794;DHT22;1912;51.358;12.282;2022-07-29T06:26:42;18.90;1.00
3794;DHT22;1912;51.358;12.282;2022-07-29T06:29:08;19.10;1.00
3794;DHT22;1912;51.358;12.282;2022-07-29T06:31:38;19.10;1.00
3794;DHT22;1912;51.358;12.282;2022-07-29T06:34:04;19.20;1.00
3794;DHT22;1912;51.358;12.282;2022-07-29T06:36:30;19.30;1.00
3794;DHT22;1912;51.358;12.282;2022-07-29T06:38:56;19.30;1.00
3794;DHT22;1912;51.358;12.282;2022-07-29T06:41:21;19.40;1.00
3794;DHT22;1912;51.358;12.282;2022-07-29T06:43:48;19.50;1.00
3794;DHT22;1912;51.358;12.282;2022-07-29T06:46:15;19.60;1.00
3794;DHT22;1912;51.358;12.282;2022-07-29T06:48:44;19.70;1.00
3794;DHT22;1912;51.358;12.282;2022-07-29T06:51:11;19.80;1.00
3794;DHT22;1912;51.358;12.282;2022-07-29T06:53:38;19.90;1.00
3794;DHT22;1912;51.358;12.282;2022-07-29T06:56:05;20.10;1.00
3794;DHT22;1912;51.358;12.282;2022-07-29T06:58:34;20.20;1.00
3794;DHT22;1912;51.358;12.282;2022-07-29T07:01:03;20.40;1.00
3794;DHT22;1912;51.358;12.282;2022-07-29T07:03:30;20.60;1.00
3794;DHT22;1912;51.358;12.282;2022-07-29T07:05:56;21.20;1.00
3794;DHT22;1912;51.358;12.282;2022-07-29T07:08:22;21.70;1.00
3794;DHT22;1912;51.358;12.282;2022-07-29T07:10:49;21.80;1.00
3794;DHT22;1912;51.358;12.282;2022-07-29T07:13:15;22.00;1.00
3794;DHT22;1912;51.358;12.282;2022-07-29T07:15:45;22.10;1.00
3794;DHT22;1912;51.358;12.282;2022-07-29T07:18:14;22.30;1.00
3794;DHT22;1912;51.358;12.282;2022-07-29T07:20:40;22.80;1.00
3794;DHT22;1912;51.358;12.282;2022-07-29T07:23:06;23.30;1.00
3794;DHT22;1912;51.358;12.282;2022-07-29T07:25:32;23.30;1.00
3794;DHT22;1912;51.358;12.282;2022-07-29T07:27:58;23.40;1.00
3794;DHT22;1912;51.358;12.282;2022-07-29T07:30:24;23.80;1.00
3794;DHT22;1912;51.358;12.282;2022-07-29T07:32:49;24.20;1.00
3794;DHT22;1912;51.358;12.282;2022-07-29T07:35:15;24.50;1.00
3794;DHT22;1912;51.358;12.282;2022-07-29T07:37:41;24.80;1.00
3794;DHT22;1912;51.358;12.282;2022-07-29T07:40:08;25.00;1.00
3794;DHT22;1912;51.358;12.282;2022-07-29T07:42:35;24.80;1.00
3794;DHT22;1912;51.358;12.282;2022-07-29T07:45:01;25.20;1.00
3794;DHT22;1912;51.358;12.282;2022-07-29T07:47:26;25.60;1.00
3794;DHT22;1912;51.358;12.282;2022-07-29T07:49:53;26.00;1.00
3794;DHT22;1912;51.358;12.282;2022-07-29T07:52:20;25.60;1.00
3794;DHT22;1912;51.358;12.282;2022-07-29T07:54:47;25.40;1.00
3794;DHT22;1912;51.358;12.282;2022-07-29T07:57:13;25.20;1.00
3794;DHT22;1912;51.358;12.282;2022-07-29T07:59:40;25.60;1.00
3794;DHT22;1912;51.358;12.282;2022-07-29T08:02:06;26.30;1.00
3794;DHT22;1912;51.358;12.282;2022-07-29T08:04:32;26.50;1.00
3794;DHT22;1912;51.358;12.282;2022-07-29T08:06:58;26.80;1.00
3794;DHT22;1912;51.358;12.282;2022-07-29T08:09:26;27.20;1.00
3794;DHT22;1912;51.358;12.282;2022-07-29T08:11:52;27.40;1.00
3794;DHT22;1912;51.358;12.282;2022-07-29T08:14:18;27.60;1.00
3794;DHT22;1912;51.358;12.282;2022-07-29T08:16:45;27.90;1.00
3794;DHT22;1912;51.358;12.282;2022-07-29T08:22:52;28.30;1.00
3794;DHT22;1912;51.358;12.282;2022-07-29T08:25:19;28.50;1.00
3794;DHT22;1912;51.358;12.282;2022-07-29T08:27:46;28.60;1.00
3794;DHT22;1912;51.358;12.282;2022-07-29T08:30:13;28.60;1.00
3794;DHT22;1912;51.358;12.282;2022-07-29T08:32:38;29.10;1.00
3794;DHT22;1912;51.358;12.282;2022-07-29T08:35:04;28.80;1.00
3794;DHT22;1912;51.358;12.282;2022-07-29T08:37:30;28.80;1.00
3794;DHT22;1912;51.358;12.282;2022-07-29T08:39:56;29.30;1.00
3794;DHT22;1912;51.358;12.282;2022-07-29T08:42:21;28.80;1.00
3794;DHT22;1912;51.358;12.282;2022-07-29T08:44:48;29.10;1.00
3794;DHT22;1912;51.358;12.282;2022-07-29T08:47:14;29.40;1.00
3794;DHT22;1912;51.358;12.282;2022-07-29T08:49:40;29.90;1.00
3794;DHT22;1912;51.358;12.282;2022-07-29T08:52:06;30.20;1.00
3794;DHT22;1912;51.358;12.282;2022-07-29T08:54:32;29.40;1.00
3794;DHT22;1912;51.358;12.282;2022-07-29T08:56:59;29.60;1.00
3794;DHT22;1912;51.358;12.282;2022-07-29T08:59:27;30.00;1.00
3794;DHT22;1912;51.358;12.282;2022-07-29T09:01:54;30.00;1.00
3794;DHT22;1912;51.358;12.282;2022-07-29T09:04:20;29.60;1.00
3794;DHT22;1912;51.358;12.282;2022-07-29T09:06:48;30.20;1.00
3794;DHT22;1912;51.358;12.282;2022-07-29T09:09:16;30.10;1.00
3794;DHT22;1912;51.358;12.282;2022-07-29T09:11:42;30.50;1.00
3794;DHT22;1912;51.358;12.282;2022-07-29T09:14:11;30.60;1.00
3794;DHT22;1912;51.358;12.282;2022-07-29T09:19:21;31.00;1.00
3794;DHT22;1912;51.358;12.282;2022-07-29T09:21:48;31.50;1.00
3794;DHT22;1912;51.358;12.282;2022-07-29T09:24:22;31.70;1.00
3794;DHT22;1912;51.358;12.282;2022-07-29T09:26:49;31.70;1.00
3794;DHT22;1912;51.358;12.282;2022-07-29T09:29:23;31.90;1.00
3794;DHT22;1912;51.358;12.282;2022-07-29T09:31:52;32.00;1.00
3794;DHT22;1912;51.358;12.282;2022-07-29T09:34:26;32.40;1.00
3794;DHT22;1912;51.358;12.282;2022-07-29T09:36:57;32.40;1.00
3794;DHT22;1912;51.358;12.282;2022-07-29T09:39:34;32.70;1.00
3794;DHT22;1912;51.358;12.282;2022-07-29T09:42:10;32.70;1.00
3794;DHT22;1912;51.358;12.282;2022-07-29T09:44:47;31.80;1.00
3794;DHT22;1912;51.358;12.282;2022-07-29T09:47:17;32.30;1.00
3794;DHT22;1912;51.358;12.282;2022-07-29T09:50:04;33.10;1.00
3794;DHT22;1912;51.358;12.282;2022-07-29T09:52:30;33.60;1.00
3794;DHT22;1912;51.358;12.282;2022-07-29T09:55:06;34.00;1.00
3794;DHT22;1912;51.358;12.282;2022-07-29T09:57:33;33.80;1.00
3794;DHT22;1912;51.358;12.282;2022-07-29T10:00:08;33.90;1.00
3794;DHT22;1912;51.358;12.282;2022-07-29T10:02:36;33.00;1.00
3794;DHT22;1912;51.358;12.282;2022-07-29T10:05:06;33.50;1.00
3794;DHT22;1912;51.358;12.282;2022-07-29T10:07:56;34.00;1.00
3794;DHT22;1912;51.358;12.282;2022-07-29T10:10:25;32.90;1.00
3794;DHT22;1912;51.358;12.282;2022-07-29T10:12:56;32.40;1.00
3794;DHT22;1912;51.358;12.282;2022-07-29T10:15:28;33.30;1.00
3794;DHT22;1912;51.358;12.282;2022-07-29T10:17:56;33.80;1.00
3794;DHT22;1912;51.358;12.282;2022-07-29T10:20:22;34.20;1.00
3794;DHT22;1912;51.358;12.282;2022-07-29T10:22:50;34.10;1.00
3794;DHT22;1912;51.358;12.282;2022-07-29T10:25:17;34.30;1.00
3794;DHT22;1912;51.358;12.282;2022-07-29T10:27:47;35.30;1.00
3794;DHT22;1912;51.358;12.282;2022-07-29T10:30:17;35.00;1.00
3794;DHT22;1912;51.358;12.282;2022-07-29T10:38:38;35.70;1.00
3794;DHT22;1912;51.358;12.282;2022-07-29T10:43:56;36.30;1.00
3794;DHT22;1912;51.358;12.282;2022-07-29T10:46:24;35.90;1.00
3794;DHT22;1912;51.358;12.282;2022-07-29T10:52:53;36.00;1.00
3794;DHT22;1912;51.358;12.282;2022-07-29T10:55:31;35.30;1.00
3794;DHT22;1912;51.358;12.282;2022-07-29T11:00:45;35.50;1.00
3794;DHT22;1912;51.358;12.282;2022-07-29T11:06:05;36.40;1.00
3794;DHT22;1912;51.358;12.282;2022-07-29T11:08:31;36.70;1.00
3794;DHT22;1912;51.358;12.282;2022-07-29T11:13:55;36.60;1.00
3794;DHT22;1912;51.358;12.282;2022-07-29T11:16:22;36.50;1.00
3794;DHT22;1912;51.358;12.282;2022-07-29T11:22:33;37.20;1.00
3794;DHT22;1912;51.358;12.282;2022-07-29T11:25:13;36.80;99.90
3794;DHT22;1912;51.358;12.282;2022-07-29T11:27:40;37.40;99.90
3794;DHT22;1912;51.358;12.282;2022-07-29T11:30:06;37.50;99.90
3794;DHT22;1912;51.358;12.282;2022-07-29T11:32:41;37.00;1.00
3794;DHT22;1912;51.358;12.282;2022-07-29T11:35:19;36.20;1.00
3794;DHT22;1912;51.358;12.282;2022-07-29T11:41:20;37.10;99.90
3794;DHT22;1912;51.358;12.282;2022-07-29T11:43:56;37.40;99.90
3794;DHT22;1912;51.358;12.282;2022-07-29T11:49:11;37.90;99.90
3794;DHT22;1912;51.358;12.282;2022-07-29T11:51:37;38.10;99.90
3794;DHT22;1912;51.358;12.282;2022-07-29T11:54:04;37.80;99.90
3794;DHT22;1912;51.358;12.282;2022-07-29T11:56:34;38.00;99.90
3794;DHT22;1912;51.358;12.282;2022-07-29T11:59:06;37.70;99.90
3794;DHT22;1912;51.358;12.282;2022-07-29T12:01:34;38.40;99.90
3794;DHT22;1912;51.358;12.282;2022-07-29T12:04:04;37.50;99.90
3794;DHT22;1912;51.358;12.282;2022-07-29T12:06:32;37.20;99.90
3794;DHT22;1912;51.358;12.282;2022-07-29T12:12:39;37.40;99.90
3794;DHT22;1912;51.358;12.282;2022-07-29T12:15:16;37.00;99.90
3794;DHT22;1912;51.358;12.282;2022-07-29T12:17:47;37.00;99.90
3794;DHT22;1912;51.358;12.282;2022-07-29T12:20:14;37.30;1.00
3794;DHT22;1912;51.358;12.282;2022-07-29T12:22:51;37.20;1.00
3794;DHT22;1912;51.358;12.282;2022-07-29T12:25:19;37.10;99.90
3794;DHT22;1912;51.358;12.282;2022-07-29T12:27:45;37.60;99.90
3794;DHT22;1912;51.358;12.282;2022-07-29T12:30:12;37.70;99.90
3794;DHT22;1912;51.358;12.282;2022-07-29T12:32:43;38.10;99.90
3794;DHT22;1912;51.358;12.282;2022-07-29T12:35:15;38.50;99.90
3794;DHT22;1912;51.358;12.282;2022-07-29T12:37:43;37.90;99.90
3794;DHT22;1912;51.358;12.282;2022-07-29T12:40:11;38.10;99.90
3794;DHT22;1912;51.358;12.282;2022-07-29T12:42:39;37.40;1.00
3794;DHT22;1912;51.358;12.282;2022-07-29T12:45:05;36.90;1.00
3794;DHT22;1912;51.358;12.282;2022-07-29T12:47:32;37.30;1.00
3794;DHT22;1912;51.358;12.282;2022-07-29T12:50:12;37.60;1.00
3794;DHT22;1912;51.358;12.282;2022-07-29T12:52:45;38.10;99.90
3794;DHT22;1912;51.358;12.282;2022-07-29T12:55:11;38.00;99.90
3794;DHT22;1912;51.358;12.282;2022-07-29T12:57:50;37.80;1.00
3794;DHT22;1912;51.358;12.282;2022-07-29T13:00:22;37.20;1.00
3794;DHT22;1912;51.358;12.282;2022-07-29T13:02:59;37.10;1.00
3794;DHT22;1912;51.358;12.282;2022-07-29T13:05:43;36.60;1.00
3794;DHT22;1912;51.358;12.282;2022-07-29T13:08:14;36.60;1.00
3794;DHT22;1912;51.358;12.282;2022-07-29T13:10:41;36.20;1.00
3794;DHT22;1912;51.358;12.282;2022-07-29T13:13:13;35.90;1.00
3794;DHT22;1912;51.358;12.282;2022-07-29T13:15:42;36.00;1.00
3794;DHT22;1912;51.358;12.282;2022-07-29T13:18:34;35.40;1.00
3794;DHT22;1912;51.358;12.282;2022-07-29T13:21:13;35.20;1.00
3794;DHT22;1912;51.358;12.282;2022-07-29T13:23:41;35.10;1.00
3794;DHT22;1912;51.358;12.282;2022-07-29T13:26:11;34.90;1.00
3794;DHT22;1912;51.358;12.282;2022-07-29T13:28:37;34.70;1.00
3794;DHT22;1912;51.358;12.282;2022-07-29T13:31:03;34.50;1.00
3794;DHT22;1912;51.358;12.282;2022-07-29T13:33:30;34.10;1.00
3794;DHT22;1912;51.358;12.282;2022-07-29T13:35:56;34.30;1.00
3794;DHT22;1912;51.358;12.282;2022-07-29T13:38:21;34.00;1.00
3794;DHT22;1912;51.358;12.282;2022-07-29T13:40:47;33.80;1.00
3794;DHT22;1912;51.358;12.282;2022-07-29T13:43:13;33.80;1.00
3794;DHT22;1912;51.358;12.282;2022-07-29T13:45:39;33.60;1.00
3794;DHT22;1912;51.358;12.282;2022-07-29T13:48:04;33.00;1.00
3794;DHT22;1912;51.358;12.282;2022-07-29T13:50:31;33.30;1.00
3794;DHT22;1912;51.358;12.282;2022-07-29T13:52:58;33.30;1.00
3794;DHT22;1912;51.358;12.282;2022-07-29T13:55:24;33.10;1.00
3794;DHT22;1912;51.358;12.282;2022-07-29T13:57:49;33.10;1.00
3794;DHT22;1912;51.358;12.282;2022-07-29T14:00:15;33.10;1.00
3794;DHT22;1912;51.358;12.282;2022-07-29T14:02:42;33.20;1.00
3794;DHT22;1912;51.358;12.282;2022-07-29T14:05:08;32.80;1.00
3794;DHT22;1912;51.358;12.282;2022-07-29T14:07:35;32.80;1.00
3794;DHT22;1912;51.358;12.282;2022-07-29T14:10:02;32.60;1.00
3794;DHT22;1912;51.358;12.282;2022-07-29T14:12:29;32.80;1.00
3794;DHT22;1912;51.358;12.282;2022-07-29T14:14:54;32.60;1.00
3794;DHT22;1912;51.358;12.282;2022-07-29T14:17:20;32.40;1.00
3794;DHT22;1912;51.358;12.282;2022-07-29T14:19:46;32.60;1.00
3794;DHT22;1912;51.358;12.282;2022-07-29T14:22:12;32.50;1.00
3794;DHT22;1912;51.358;12.282;2022-07-29T14:24:38;32.40;1.00
3794;DHT22;1912;51.358;12.282;2022-07-29T14:27:04;32.20;1.00
3794;DHT22;1912;51.358;12.282;2022-07-29T14:29:31;32.00;1.00
3794;DHT22;1912;51.358;12.282;2022-07-29T14:31:57;31.80;1.00
3794;DHT22;1912;51.358;12.282;2022-07-29T14:34:23;31.80;1.00
3794;DHT22;1912;51.358;12.282;2022-07-29T14:36:49;31.90;1.00
3794;DHT22;1912;51.358;12.282;2022-07-29T14:39:15;31.60;1.00
3794;DHT22;1912;51.358;12.282;2022-07-29T14:41:42;31.60;1.00
3794;DHT22;1912;51.358;12.282;2022-07-29T14:44:08;31.60;1.00
3794;DHT22;1912;51.358;12.282;2022-07-29T14:46:34;31.60;1.00
3794;DHT22;1912;51.358;12.282;2022-07-29T14:48:59;31.50;1.00
3794;DHT22;1912;51.358;12.282;2022-07-29T14:51:25;31.30;1.00
3794;DHT22;1912;51.358;12.282;2022-07-29T14:53:51;31.50;1.00
3794;DHT22;1912;51.358;12.282;2022-07-29T14:56:16;31.40;1.00
3794;DHT22;1912;51.358;12.282;2022-07-29T14:58:42;31.50;1.00
3794;DHT22;1912;51.358;12.282;2022-07-29T15:01:08;31.40;1.00
3794;DHT22;1912;51.358;12.282;2022-07-29T15:03:34;31.40;1.00
3794;DHT22;1912;51.358;12.282;2022-07-29T15:05:59;31.60;1.00
3794;DHT22;1912;51.358;12.282;2022-07-29T15:08:25;31.70;1.00
3794;DHT22;1912;51.358;12.282;2022-07-29T15:10:53;31.70;1.00
3794;DHT22;1912;51.358;12.282;2022-07-29T15:13:19;31.80;1.00
3794;DHT22;1912;51.358;12.282;2022-07-29T15:15:44;31.90;1.00
3794;DHT22;1912;51.358;12.282;2022-07-29T15:21:51;31.80;1.00
3794;DHT22;1912;51.358;12.282;2022-07-29T15:24:18;31.50;1.00
3794;DHT22;1912;51.358;12.282;2022-07-29T15:26:44;31.50;1.00
3794;DHT22;1912;51.358;12.282;2022-07-29T15:32:51;31.30;1.00
3794;DHT22;1912;51.358;12.282;2022-07-29T15:35:17;31.40;1.00
3794;DHT22;1912;51.358;12.282;2022-07-29T15:37:42;31.20;1.00
3794;DHT22;1912;51.358;12.282;2022-07-29T15:40:08;31.20;1.00
3794;DHT22;1912;51.358;12.282;2022-07-29T15:42:35;31.40;1.00
3794;DHT22;1912;51.358;12.282;2022-07-29T15:45:03;31.40;1.00
3794;DHT22;1912;51.358;12.282;2022-07-29T15:47:29;31.50;1.00
3794;DHT22;1912;51.358;12.282;2022-07-29T15:49:55;31.60;1.00
3794;DHT22;1912;51.358;12.282;2022-07-29T15:52:21;31.60;1.00
3794;DHT22;1912;51.358;12.282;2022-07-29T15:54:46;31.60;1.00
3794;DHT22;1912;51.358;12.282;2022-07-29T15:57:12;31.50;1.00
3794;DHT22;1912;51.358;12.282;2022-07-29T15:59:38;31.50;1.00
3794;DHT22;1912;51.358;12.282;2022-07-29T16:02:04;31.10;1.00
3794;DHT22;1912;51.358;12.282;2022-07-29T16:04:30;30.20;1.00
3794;DHT22;1912;51.358;12.282;2022-07-29T16:06:56;29.30;1.00
3794;DHT22;1912;51.358;12.282;2022-07-29T16:09:22;28.90;1.00
3794;DHT22;1912;51.358;12.282;2022-07-29T16:11:48;28.40;1.00
3794;DHT22;1912;51.358;12.282;2022-07-29T16:14:18;28.10;1.00
3794;DHT22;1912;51.358;12.282;2022-07-29T16:16:45;28.00;1.00
3794;DHT22;1912;51.358;12.282;2022-07-29T16:19:11;27.80;1.00
3794;DHT22;1912;51.358;12.282;2022-07-29T16:21:37;27.60;1.00
3794;DHT22;1912;51.358;12.282;2022-07-29T16:24:04;27.30;1.00
3794;DHT22;1912;51.358;12.282;2022-07-29T16:26:30;27.30;1.00
3794;DHT22;1912;51.358;12.282;2022-07-29T16:28:56;27.10;1.00
3794;DHT22;1912;51.358;12.282;2022-07-29T16:31:22;27.10;1.00
3794;DHT22;1912;51.358;12.282;2022-07-29T16:33:49;26.90;1.00
3794;DHT22;1912;51.358;12.282;2022-07-29T16:36:15;26.80;1.00
3794;DHT22;1912;51.358;12.282;2022-07-29T16:38:42;26.70;1.00
3794;DHT22;1912;51.358;12.282;2022-07-29T16:41:07;26.60;1.00
3794;DHT22;1912;51.358;12.282;2022-07-29T16:43:33;26.50;1.00
3794;DHT22;1912;51.358;12.282;2022-07-29T16:45:59;26.40;1.00
3794;DHT22;1912;51.358;12.282;2022-07-29T16:48:25;26.60;1.00
3794;DHT22;1912;51.358;12.282;2022-07-29T16:50:50;26.70;1.00
3794;DHT22;1912;51.358;12.282;2022-07-29T16:53:16;26.60;1.00